FQVL

Vilankulo Airport

Vilanculo, Mozambique
METAR FQVL 181300Z 15015KT 9999 FEW015 BKN020 BKN080 25/20 Q1012
Observed Flight Rules
Oct-18 @ 13:00 UTC (3 hours ago) Marginal Visual Flight Rules
Wind Visibility Clouds
150° at 15 knots 10,000+ meters
  • Few at 1,500' AGL
  • Broken at 2,000' AGL
  • Broken at 8,000' AGL
Temperatures Readings
Current 25°C / 77°F
Dewpoint 20°C / 68°F
Humidity 74%
Altimeter 29.88" Hg
Pressure 1012 hPa
Elevation 21
METAR FQVL 181300Z 15015KT 9999 FEW015 BKN020 BKN080 25/20 Q1012
Observed Flight Rules
Oct-18 @ 13:00 UTC
(3 hours ago)
MVFR
Wind Visibility
150° at 15 knots 10,000+ meters
Clouds
  • Few at 1,500' AGL
  • Broken at 2,000' AGL
  • Broken at 8,000' AGL
Temperature Dewpoint
25°C / 77°F 20°C / 68°F
Humidity Altimeter Pressure
74% 29.88" Hg 1012 hPa